ADDS METAR Data INFO
IDs: Format: Raw Decoded Include TAF

Data at: 0159 UTC 26 Apr 2017

METAR for:KVCT (Victoria Rgnl, TX, US)
Text:KVCT 260151Z 16014G22KT 10SM OVC018 25/22 A2955 RMK AO2 SLP004 T02500217
Temperature: 25.0°C ( 77°F)
Dewpoint: 21.7°C ( 71°F) [RH = 82%]
Pressure (altimeter):29.55 inches Hg (1000.8 mb) [Sea level pressure: 1000.4 mb]
Winds:from the SSE (160 degrees) at 16 MPH (14 knots; 7.2 m/s) gusting to 25 MPH (22 knots; 11.3 m/s)
Visibility:10 or more sm (16+ km)
Ceiling:1800 feet AGL
Clouds: overcast cloud deck at 1800 feet AGL


Page loaded:  01:59 UTC  |   06:59 PM Pacific  |   07:59 PM Mountain  |   08:59 PM Central  |   09:59 PM Eastern

 

ADVISORIES

FORECASTS

FORECASTS

OBSERVATIONS

USER TOOLS

ABOUT US